sensor_id;sensor_type;location;lat;lon;timestamp;P1;durP1;ratioP1;P2;durP2;ratioP2
4174;SDS011;2101;48.290;14.382;2024-02-21T00:01:01;57.80;;;4.03;;
4174;SDS011;2101;48.290;14.382;2024-02-21T00:03:27;47.30;;;3.40;;
4174;SDS011;2101;48.290;14.382;2024-02-21T00:05:53;52.10;;;3.30;;
4174;SDS011;2101;48.290;14.382;2024-02-21T00:08:18;45.30;;;2.50;;
4174;SDS011;2101;48.290;14.382;2024-02-21T00:10:44;47.53;;;2.60;;
4174;SDS011;2101;48.290;14.382;2024-02-21T00:13:10;43.87;;;1.77;;
4174;SDS011;2101;48.290;14.382;2024-02-21T00:15:36;46.80;;;2.30;;
4174;SDS011;2101;48.290;14.382;2024-02-21T00:18:02;45.93;;;2.50;;
4174;SDS011;2101;48.290;14.382;2024-02-21T00:20:31;49.50;;;3.63;;
4174;SDS011;2101;48.290;14.382;2024-02-21T00:22:56;46.77;;;3.13;;
4174;SDS011;2101;48.290;14.382;2024-02-21T00:25:22;44.03;;;2.47;;
4174;SDS011;2101;48.290;14.382;2024-02-21T00:27:48;46.07;;;3.03;;
4174;SDS011;2101;48.290;14.382;2024-02-21T00:30:14;50.20;;;3.60;;
4174;SDS011;2101;48.290;14.382;2024-02-21T00:32:40;47.40;;;3.30;;
4174;SDS011;2101;48.290;14.382;2024-02-21T00:35:06;49.17;;;3.30;;
4174;SDS011;2101;48.290;14.382;2024-02-21T00:37:32;56.93;;;3.60;;
4174;SDS011;2101;48.290;14.382;2024-02-21T00:39:58;47.97;;;3.23;;
4174;SDS011;2101;48.290;14.382;2024-02-21T00:42:23;50.93;;;3.13;;
4174;SDS011;2101;48.290;14.382;2024-02-21T00:44:49;80.70;;;3.33;;
4174;SDS011;2101;48.290;14.382;2024-02-21T00:47:15;44.23;;;2.37;;
4174;SDS011;2101;48.290;14.382;2024-02-21T00:49:41;60.03;;;2.97;;
4174;SDS011;2101;48.290;14.382;2024-02-21T00:52:07;42.57;;;2.53;;
4174;SDS011;2101;48.290;14.382;2024-02-21T00:54:33;47.60;;;2.90;;
4174;SDS011;2101;48.290;14.382;2024-02-21T00:56:59;47.87;;;3.07;;
4174;SDS011;2101;48.290;14.382;2024-02-21T00:59:24;48.83;;;3.17;;
4174;SDS011;2101;48.290;14.382;2024-02-21T01:01:50;41.93;;;2.60;;
4174;SDS011;2101;48.290;14.382;2024-02-21T01:04:16;47.50;;;2.67;;
4174;SDS011;2101;48.290;14.382;2024-02-21T01:06:42;54.23;;;3.10;;
4174;SDS011;2101;48.290;14.382;2024-02-21T01:09:09;46.03;;;2.63;;
4174;SDS011;2101;48.290;14.382;2024-02-21T01:11:36;49.60;;;2.50;;
4174;SDS011;2101;48.290;14.382;2024-02-21T01:14:02;43.17;;;2.20;;
4174;SDS011;2101;48.290;14.382;2024-02-21T01:16:28;43.93;;;3.10;;
4174;SDS011;2101;48.290;14.382;2024-02-21T01:18:53;48.20;;;2.33;;
4174;SDS011;2101;48.290;14.382;2024-02-21T01:21:20;44.07;;;2.37;;
4174;SDS011;2101;48.290;14.382;2024-02-21T01:23:45;53.87;;;3.33;;
4174;SDS011;2101;48.290;14.382;2024-02-21T01:26:11;51.03;;;3.40;;
4174;SDS011;2101;48.290;14.382;2024-02-21T01:28:39;46.10;;;3.37;;
4174;SDS011;2101;48.290;14.382;2024-02-21T01:31:05;42.10;;;3.20;;
4174;SDS011;2101;48.290;14.382;2024-02-21T01:33:31;51.43;;;3.70;;
4174;SDS011;2101;48.290;14.382;2024-02-21T01:36:03;52.00;;;3.70;;
4174;SDS011;2101;48.290;14.382;2024-02-21T01:38:31;44.30;;;3.50;;
4174;SDS011;2101;48.290;14.382;2024-02-21T01:40:58;52.10;;;4.80;;
4174;SDS011;2101;48.290;14.382;2024-02-21T01:43:24;60.93;;;5.20;;
4174;SDS011;2101;48.290;14.382;2024-02-21T01:45:50;54.77;;;5.93;;
4174;SDS011;2101;48.290;14.382;2024-02-21T01:48:20;61.17;;;5.67;;
4174;SDS011;2101;48.290;14.382;2024-02-21T01:50:48;58.33;;;5.80;;
4174;SDS011;2101;48.290;14.382;2024-02-21T01:53:16;50.20;;;4.20;;
4174;SDS011;2101;48.290;14.382;2024-02-21T01:55:55;56.93;;;4.50;;
4174;SDS011;2101;48.290;14.382;2024-02-21T01:58:21;62.27;;;4.63;;
4174;SDS011;2101;48.290;14.382;2024-02-21T02:00:48;46.80;;;4.10;;
4174;SDS011;2101;48.290;14.382;2024-02-21T02:03:16;48.43;;;3.50;;
4174;SDS011;2101;48.290;14.382;2024-02-21T02:05:45;49.50;;;3.33;;
4174;SDS011;2101;48.290;14.382;2024-02-21T02:08:15;52.47;;;4.70;;
4174;SDS011;2101;48.290;14.382;2024-02-21T02:10:42;56.43;;;4.97;;
4174;SDS011;2101;48.290;14.382;2024-02-21T02:13:09;48.40;;;4.10;;
4174;SDS011;2101;48.290;14.382;2024-02-21T02:15:39;52.67;;;4.40;;
4174;SDS011;2101;48.290;14.382;2024-02-21T02:18:05;48.37;;;4.63;;
4174;SDS011;2101;48.290;14.382;2024-02-21T02:20:31;63.43;;;3.90;;
4174;SDS011;2101;48.290;14.382;2024-02-21T02:22:57;50.47;;;4.00;;
4174;SDS011;2101;48.290;14.382;2024-02-21T02:25:25;53.63;;;4.47;;
4174;SDS011;2101;48.290;14.382;2024-02-21T02:27:51;50.57;;;4.07;;
4174;SDS011;2101;48.290;14.382;2024-02-21T02:30:18;52.53;;;4.73;;
4174;SDS011;2101;48.290;14.382;2024-02-21T02:32:47;45.20;;;3.10;;
4174;SDS011;2101;48.290;14.382;2024-02-21T02:35:13;47.30;;;2.70;;
4174;SDS011;2101;48.290;14.382;2024-02-21T02:37:39;46.07;;;3.00;;
4174;SDS011;2101;48.290;14.382;2024-02-21T02:40:06;48.43;;;2.63;;
4174;SDS011;2101;48.290;14.382;2024-02-21T02:42:33;40.63;;;1.70;;
4174;SDS011;2101;48.290;14.382;2024-02-21T02:44:59;41.83;;;2.33;;
4174;SDS011;2101;48.290;14.382;2024-02-21T02:47:25;46.07;;;2.70;;
4174;SDS011;2101;48.290;14.382;2024-02-21T02:49:51;48.77;;;2.50;;
4174;SDS011;2101;48.290;14.382;2024-02-21T02:52:17;43.40;;;2.17;;
4174;SDS011;2101;48.290;14.382;2024-02-21T02:54:43;48.73;;;2.90;;
4174;SDS011;2101;48.290;14.382;2024-02-21T02:57:10;40.70;;;1.70;;
4174;SDS011;2101;48.290;14.382;2024-02-21T02:59:37;49.00;;;2.33;;
4174;SDS011;2101;48.290;14.382;2024-02-21T03:02:02;43.63;;;1.90;;
4174;SDS011;2101;48.290;14.382;2024-02-21T03:04:28;50.27;;;2.23;;
4174;SDS011;2101;48.290;14.382;2024-02-21T03:06:54;47.80;;;1.90;;
4174;SDS011;2101;48.290;14.382;2024-02-21T03:09:20;45.90;;;2.07;;
4174;SDS011;2101;48.290;14.382;2024-02-21T03:11:46;42.77;;;1.67;;
4174;SDS011;2101;48.290;14.382;2024-02-21T03:14:12;50.70;;;2.33;;
4174;SDS011;2101;48.290;14.382;2024-02-21T03:16:38;45.53;;;2.43;;
4174;SDS011;2101;48.290;14.382;2024-02-21T03:19:04;40.27;;;2.13;;
4174;SDS011;2101;48.290;14.382;2024-02-21T03:21:29;50.73;;;1.87;;
4174;SDS011;2101;48.290;14.382;2024-02-21T03:23:55;46.70;;;1.70;;
4174;SDS011;2101;48.290;14.382;2024-02-21T03:26:21;46.23;;;2.70;;
4174;SDS011;2101;48.290;14.382;2024-02-21T03:28:47;47.60;;;2.53;;
4174;SDS011;2101;48.290;14.382;2024-02-21T03:31:14;43.03;;;2.63;;
4174;SDS011;2101;48.290;14.382;2024-02-21T03:33:40;45.90;;;2.57;;
4174;SDS011;2101;48.290;14.382;2024-02-21T03:36:12;45.87;;;2.10;;
4174;SDS011;2101;48.290;14.382;2024-02-21T03:38:39;41.70;;;2.00;;
4174;SDS011;2101;48.290;14.382;2024-02-21T03:41:05;45.77;;;1.83;;
4174;SDS011;2101;48.290;14.382;2024-02-21T03:43:31;42.10;;;1.50;;
4174;SDS011;2101;48.290;14.382;2024-02-21T03:45:56;41.13;;;1.80;;
4174;SDS011;2101;48.290;14.382;2024-02-21T03:48:22;44.50;;;2.20;;
4174;SDS011;2101;48.290;14.382;2024-02-21T03:50:48;46.93;;;2.20;;
4174;SDS011;2101;48.290;14.382;2024-02-21T03:53:14;46.00;;;2.50;;
4174;SDS011;2101;48.290;14.382;2024-02-21T03:55:40;48.70;;;2.30;;
4174;SDS011;2101;48.290;14.382;2024-02-21T03:58:06;42.10;;;1.70;;
4174;SDS011;2101;48.290;14.382;2024-02-21T04:00:31;39.53;;;1.60;;
4174;SDS011;2101;48.290;14.382;2024-02-21T04:02:57;47.20;;;2.33;;
4174;SDS011;2101;48.290;14.382;2024-02-21T04:05:23;42.30;;;1.87;;
4174;SDS011;2101;48.290;14.382;2024-02-21T04:07:49;47.00;;;1.80;;
4174;SDS011;2101;48.290;14.382;2024-02-21T04:10:16;42.53;;;1.70;;
4174;SDS011;2101;48.290;14.382;2024-02-21T04:12:42;44.40;;;2.00;;
4174;SDS011;2101;48.290;14.382;2024-02-21T04:15:08;50.70;;;1.53;;
4174;SDS011;2101;48.290;14.382;2024-02-21T04:17:34;48.70;;;1.90;;
4174;SDS011;2101;48.290;14.382;2024-02-21T04:20:04;44.67;;;1.40;;
4174;SDS011;2101;48.290;14.382;2024-02-21T04:22:33;46.03;;;2.10;;
4174;SDS011;2101;48.290;14.382;2024-02-21T04:25:00;44.23;;;1.70;;
4174;SDS011;2101;48.290;14.382;2024-02-21T04:27:26;38.30;;;1.20;;
4174;SDS011;2101;48.290;14.382;2024-02-21T04:29:52;46.33;;;2.00;;
4174;SDS011;2101;48.290;14.382;2024-02-21T04:32:18;51.53;;;1.97;;
4174;SDS011;2101;48.290;14.382;2024-02-21T04:34:44;47.17;;;1.70;;
4174;SDS011;2101;48.290;14.382;2024-02-21T04:37:10;42.40;;;1.70;;
4174;SDS011;2101;48.290;14.382;2024-02-21T04:39:36;44.93;;;1.90;;
4174;SDS011;2101;48.290;14.382;2024-02-21T04:42:01;40.53;;;1.70;;
4174;SDS011;2101;48.290;14.382;2024-02-21T04:44:27;38.57;;;1.60;;
4174;SDS011;2101;48.290;14.382;2024-02-21T04:46:53;43.80;;;2.07;;
4174;SDS011;2101;48.290;14.382;2024-02-21T04:49:19;42.20;;;1.67;;
4174;SDS011;2101;48.290;14.382;2024-02-21T04:52:19;41.37;;;1.63;;
4174;SDS011;2101;48.290;14.382;2024-02-21T04:54:45;38.80;;;1.20;;
4174;SDS011;2101;48.290;14.382;2024-02-21T04:57:11;41.30;;;1.40;;
4174;SDS011;2101;48.290;14.382;2024-02-21T04:59:41;51.03;;;1.93;;
4174;SDS011;2101;48.290;14.382;2024-02-21T05:02:11;43.83;;;1.63;;
4174;SDS011;2101;48.290;14.382;2024-02-21T05:04:37;38.13;;;1.17;;
4174;SDS011;2101;48.290;14.382;2024-02-21T05:07:03;44.07;;;1.90;;
4174;SDS011;2101;48.290;14.382;2024-02-21T05:09:30;43.35;;;1.60;;
4174;SDS011;2101;48.290;14.382;2024-02-21T05:11:59;40.10;;;1.47;;
4174;SDS011;2101;48.290;14.382;2024-02-21T05:14:25;42.97;;;1.90;;
4174;SDS011;2101;48.290;14.382;2024-02-21T05:16:54;44.30;;;1.87;;
4174;SDS011;2101;48.290;14.382;2024-02-21T05:19:20;40.33;;;1.60;;
4174;SDS011;2101;48.290;14.382;2024-02-21T05:21:46;42.97;;;1.67;;
4174;SDS011;2101;48.290;14.382;2024-02-21T05:24:12;46.40;;;1.63;;
4174;SDS011;2101;48.290;14.382;2024-02-21T05:26:37;40.57;;;1.57;;
4174;SDS011;2101;48.290;14.382;2024-02-21T05:29:03;41.70;;;1.93;;
4174;SDS011;2101;48.290;14.382;2024-02-21T05:34:18;39.40;;;1.40;;
4174;SDS011;2101;48.290;14.382;2024-02-21T05:36:44;44.03;;;1.93;;
4174;SDS011;2101;48.290;14.382;2024-02-21T05:39:11;39.23;;;1.40;;
4174;SDS011;2101;48.290;14.382;2024-02-21T05:41:37;43.63;;;1.70;;
4174;SDS011;2101;48.290;14.382;2024-02-21T05:44:03;40.30;;;1.40;;
4174;SDS011;2101;48.290;14.382;2024-02-21T05:46:29;43.50;;;2.20;;
4174;SDS011;2101;48.290;14.382;2024-02-21T05:48:55;44.30;;;1.53;;
4174;SDS011;2101;48.290;14.382;2024-02-21T05:51:21;38.87;;;1.33;;
4174;SDS011;2101;48.290;14.382;2024-02-21T05:53:46;46.50;;;2.30;;
4174;SDS011;2101;48.290;14.382;2024-02-21T05:56:13;40.00;;;1.20;;
4174;SDS011;2101;48.290;14.382;2024-02-21T05:58:39;48.00;;;1.40;;
4174;SDS011;2101;48.290;14.382;2024-02-21T06:01:05;40.80;;;1.30;;
4174;SDS011;2101;48.290;14.382;2024-02-21T06:03:34;44.23;;;1.47;;
4174;SDS011;2101;48.290;14.382;2024-02-21T06:06:01;42.70;;;1.63;;
4174;SDS011;2101;48.290;14.382;2024-02-21T06:08:28;40.53;;;1.37;;
4174;SDS011;2101;48.290;14.382;2024-02-21T06:10:54;41.03;;;1.33;;
4174;SDS011;2101;48.290;14.382;2024-02-21T06:13:23;38.90;;;1.33;;
4174;SDS011;2101;48.290;14.382;2024-02-21T06:15:49;43.03;;;1.90;;
4174;SDS011;2101;48.290;14.382;2024-02-21T06:18:16;42.83;;;1.33;;
4174;SDS011;2101;48.290;14.382;2024-02-21T06:20:43;42.43;;;1.50;;
4174;SDS011;2101;48.290;14.382;2024-02-21T06:23:08;39.07;;;1.30;;
4174;SDS011;2101;48.290;14.382;2024-02-21T06:25:34;50.27;;;1.70;;
4174;SDS011;2101;48.290;14.382;2024-02-21T06:28:00;38.57;;;1.43;;
4174;SDS011;2101;48.290;14.382;2024-02-21T06:30:26;38.60;;;1.00;;
4174;SDS011;2101;48.290;14.382;2024-02-21T06:32:52;53.33;;;1.60;;
4174;SDS011;2101;48.290;14.382;2024-02-21T06:35:21;39.73;;;1.33;;
4174;SDS011;2101;48.290;14.382;2024-02-21T06:37:49;42.27;;;1.30;;
4174;SDS011;2101;48.290;14.382;2024-02-21T06:40:22;44.40;;;1.60;;
4174;SDS011;2101;48.290;14.382;2024-02-21T06:42:49;40.00;;;1.50;;
4174;SDS011;2101;48.290;14.382;2024-02-21T06:45:15;42.83;;;1.30;;
4174;SDS011;2101;48.290;14.382;2024-02-21T06:47:50;39.23;;;1.27;;
4174;SDS011;2101;48.290;14.382;2024-02-21T06:50:16;40.60;;;1.50;;
4174;SDS011;2101;48.290;14.382;2024-02-21T06:52:42;44.40;;;1.40;;
4174;SDS011;2101;48.290;14.382;2024-02-21T06:55:08;39.00;;;1.27;;
4174;SDS011;2101;48.290;14.382;2024-02-21T06:57:33;42.70;;;1.57;;
4174;SDS011;2101;48.290;14.382;2024-02-21T07:00:03;39.20;;;1.23;;
4174;SDS011;2101;48.290;14.382;2024-02-21T07:02:33;41.77;;;1.60;;
4174;SDS011;2101;48.290;14.382;2024-02-21T07:04:59;46.00;;;1.23;;
4174;SDS011;2101;48.290;14.382;2024-02-21T07:07:25;44.30;;;1.60;;
4174;SDS011;2101;48.290;14.382;2024-02-21T07:09:51;38.47;;;0.97;;
4174;SDS011;2101;48.290;14.382;2024-02-21T07:12:18;39.50;;;1.43;;
4174;SDS011;2101;48.290;14.382;2024-02-21T07:14:44;43.07;;;1.80;;
4174;SDS011;2101;48.290;14.382;2024-02-21T07:17:10;39.10;;;1.30;;
4174;SDS011;2101;48.290;14.382;2024-02-21T07:19:36;41.10;;;2.00;;
4174;SDS011;2101;48.290;14.382;2024-02-21T07:22:02;42.80;;;1.90;;
4174;SDS011;2101;48.290;14.382;2024-02-21T07:24:28;49.37;;;2.10;;
4174;SDS011;2101;48.290;14.382;2024-02-21T07:26:54;52.20;;;2.57;;
4174;SDS011;2101;48.290;14.382;2024-02-21T07:29:21;41.97;;;2.07;;
4174;SDS011;2101;48.290;14.382;2024-02-21T07:31:47;40.80;;;1.97;;
4174;SDS011;2101;48.290;14.382;2024-02-21T07:34:13;42.70;;;2.23;;
4174;SDS011;2101;48.290;14.382;2024-02-21T07:36:40;53.13;;;2.77;;
4174;SDS011;2101;48.290;14.382;2024-02-21T07:39:07;39.80;;;1.63;;
4174;SDS011;2101;48.290;14.382;2024-02-21T07:41:33;42.23;;;2.10;;
4174;SDS011;2101;48.290;14.382;2024-02-21T07:44:00;43.60;;;2.00;;
4174;SDS011;2101;48.290;14.382;2024-02-21T07:46:25;41.30;;;2.00;;
4174;SDS011;2101;48.290;14.382;2024-02-21T08:21:41;40.10;;;1.50;;
4174;SDS011;2101;48.290;14.382;2024-02-21T08:24:06;49.90;;;1.50;;
4174;SDS011;2101;48.290;14.382;2024-02-21T08:26:32;40.67;;;1.60;;
4174;SDS011;2101;48.290;14.382;2024-02-21T08:28:58;39.60;;;1.30;;
4174;SDS011;2101;48.290;14.382;2024-02-21T08:31:25;40.30;;;1.60;;
4174;SDS011;2101;48.290;14.382;2024-02-21T08:33:59;41.73;;;1.40;;
4174;SDS011;2101;48.290;14.382;2024-02-21T08:36:30;40.70;;;1.30;;
4174;SDS011;2101;48.290;14.382;2024-02-21T08:38:57;42.67;;;1.33;;
4174;SDS011;2101;48.290;14.382;2024-02-21T08:41:24;46.37;;;1.97;;
4174;SDS011;2101;48.290;14.382;2024-02-21T08:43:51;39.70;;;1.10;;
4174;SDS011;2101;48.290;14.382;2024-02-21T08:46:17;42.70;;;2.00;;
4174;SDS011;2101;48.290;14.382;2024-02-21T08:48:43;40.87;;;1.50;;
4174;SDS011;2101;48.290;14.382;2024-02-21T08:51:13;46.37;;;1.70;;
4174;SDS011;2101;48.290;14.382;2024-02-21T08:53:39;39.80;;;1.47;;
4174;SDS011;2101;48.290;14.382;2024-02-21T08:56:05;49.97;;;1.63;;
4174;SDS011;2101;48.290;14.382;2024-02-21T08:58:32;45.87;;;1.40;;
4174;SDS011;2101;48.290;14.382;2024-02-21T09:00:58;50.83;;;2.00;;
4174;SDS011;2101;48.290;14.382;2024-02-21T09:03:24;44.43;;;2.00;;
4174;SDS011;2101;48.290;14.382;2024-02-21T09:05:50;42.77;;;1.37;;
4174;SDS011;2101;48.290;14.382;2024-02-21T09:08:16;46.63;;;1.90;;
4174;SDS011;2101;48.290;14.382;2024-02-21T09:10:43;40.70;;;1.37;;
4174;SDS011;2101;48.290;14.382;2024-02-21T09:13:09;42.23;;;1.50;;
4174;SDS011;2101;48.290;14.382;2024-02-21T09:15:35;39.83;;;1.40;;
4174;SDS011;2101;48.290;14.382;2024-02-21T09:18:01;40.50;;;1.30;;
4174;SDS011;2101;48.290;14.382;2024-02-21T09:20:28;47.83;;;1.97;;
4174;SDS011;2101;48.290;14.382;2024-02-21T09:22:54;46.73;;;1.70;;
4174;SDS011;2101;48.290;14.382;2024-02-21T09:25:20;42.67;;;1.70;;
4174;SDS011;2101;48.290;14.382;2024-02-21T09:27:46;42.80;;;1.70;;
4174;SDS011;2101;48.290;14.382;2024-02-21T09:30:11;45.00;;;1.80;;
4174;SDS011;2101;48.290;14.382;2024-02-21T09:32:38;39.97;;;1.40;;
4174;SDS011;2101;48.290;14.382;2024-02-21T09:35:04;49.77;;;1.60;;
4174;SDS011;2101;48.290;14.382;2024-02-21T09:37:32;41.93;;;1.30;;
4174;SDS011;2101;48.290;14.382;2024-02-21T09:39:59;39.77;;;1.47;;
4174;SDS011;2101;48.290;14.382;2024-02-21T09:42:27;44.43;;;1.73;;
4174;SDS011;2101;48.290;14.382;2024-02-21T09:45:06;44.07;;;2.10;;
4174;SDS011;2101;48.290;14.382;2024-02-21T09:47:47;44.73;;;1.90;;
4174;SDS011;2101;48.290;14.382;2024-02-21T09:50:24;42.40;;;2.00;;
4174;SDS011;2101;48.290;14.382;2024-02-21T09:52:51;46.00;;;2.00;;
4174;SDS011;2101;48.290;14.382;2024-02-21T09:55:19;39.10;;;1.20;;
4174;SDS011;2101;48.290;14.382;2024-02-21T09:57:46;41.10;;;1.67;;
4174;SDS011;2101;48.290;14.382;2024-02-21T10:00:19;39.40;;;1.10;;
4174;SDS011;2101;48.290;14.382;2024-02-21T10:02:49;44.43;;;1.60;;
4174;SDS011;2101;48.290;14.382;2024-02-21T10:05:16;41.63;;;1.43;;
4174;SDS011;2101;48.290;14.382;2024-02-21T10:07:43;40.87;;;1.27;;
4174;SDS011;2101;48.290;14.382;2024-02-21T10:10:09;46.07;;;1.70;;
4174;SDS011;2101;48.290;14.382;2024-02-21T10:12:35;44.60;;;1.77;;
4174;SDS011;2101;48.290;14.382;2024-02-21T10:15:05;40.57;;;1.20;;
4174;SDS011;2101;48.290;14.382;2024-02-21T10:17:34;40.87;;;1.27;;
4174;SDS011;2101;48.290;14.382;2024-02-21T10:20:10;41.70;;;1.60;;
4174;SDS011;2101;48.290;14.382;2024-02-21T10:22:37;40.80;;;1.00;;
4174;SDS011;2101;48.290;14.382;2024-02-21T10:25:08;40.10;;;1.60;;
4174;SDS011;2101;48.290;14.382;2024-02-21T10:27:34;46.20;;;1.67;;
4174;SDS011;2101;48.290;14.382;2024-02-21T10:30:01;40.57;;;1.70;;
4174;SDS011;2101;48.290;14.382;2024-02-21T10:32:27;42.83;;;1.40;;
4174;SDS011;2101;48.290;14.382;2024-02-21T10:35:04;43.30;;;1.73;;
4174;SDS011;2101;48.290;14.382;2024-02-21T10:37:30;41.23;;;1.53;;
4174;SDS011;2101;48.290;14.382;2024-02-21T10:39:57;45.03;;;1.60;;
4174;SDS011;2101;48.290;14.382;2024-02-21T10:42:26;40.80;;;1.30;;
4174;SDS011;2101;48.290;14.382;2024-02-21T10:45:00;45.20;;;1.37;;
4174;SDS011;2101;48.290;14.382;2024-02-21T10:47:29;40.40;;;1.40;;
4174;SDS011;2101;48.290;14.382;2024-02-21T10:49:58;45.40;;;1.73;;
4174;SDS011;2101;48.290;14.382;2024-02-21T10:55:21;46.87;;;1.93;;
4174;SDS011;2101;48.290;14.382;2024-02-21T10:58:01;44.77;;;1.50;;
4174;SDS011;2101;48.290;14.382;2024-02-21T11:00:27;43.67;;;1.40;;
4174;SDS011;2101;48.290;14.382;2024-02-21T11:02:56;40.87;;;1.50;;
4174;SDS011;2101;48.290;14.382;2024-02-21T11:05:24;45.20;;;1.90;;
4174;SDS011;2101;48.290;14.382;2024-02-21T11:07:50;42.10;;;1.50;;
4174;SDS011;2101;48.290;14.382;2024-02-21T11:10:20;42.63;;;1.80;;
4174;SDS011;2101;48.290;14.382;2024-02-21T11:12:49;42.77;;;2.20;;
4174;SDS011;2101;48.290;14.382;2024-02-21T11:15:17;41.37;;;1.37;;
4174;SDS011;2101;48.290;14.382;2024-02-21T11:17:58;42.03;;;1.47;;
4174;SDS011;2101;48.290;14.382;2024-02-21T11:20:33;47.60;;;1.20;;
4174;SDS011;2101;48.290;14.382;2024-02-21T11:23:00;48.63;;;1.83;;
4174;SDS011;2101;48.290;14.382;2024-02-21T11:25:26;51.13;;;1.97;;
4174;SDS011;2101;48.290;14.382;2024-02-21T11:28:03;42.70;;;2.07;;
4174;SDS011;2101;48.290;14.382;2024-02-21T11:30:31;42.50;;;2.03;;
4174;SDS011;2101;48.290;14.382;2024-02-21T11:33:05;49.47;;;3.20;;
4174;SDS011;2101;48.290;14.382;2024-02-21T11:35:32;46.83;;;2.60;;
4174;SDS011;2101;48.290;14.382;2024-02-21T11:38:09;47.50;;;2.40;;
4174;SDS011;2101;48.290;14.382;2024-02-21T11:40:39;47.53;;;2.80;;
4174;SDS011;2101;48.290;14.382;2024-02-21T11:43:06;47.23;;;2.00;;
4174;SDS011;2101;48.290;14.382;2024-02-21T11:45:32;59.63;;;3.30;;
4174;SDS011;2101;48.290;14.382;2024-02-21T11:47:59;47.57;;;3.23;;
4174;SDS011;2101;48.290;14.382;2024-02-21T11:50:28;50.10;;;3.03;;
4174;SDS011;2101;48.290;14.382;2024-02-21T11:52:55;43.53;;;2.33;;
4174;SDS011;2101;48.290;14.382;2024-02-21T11:55:24;45.60;;;2.83;;
4174;SDS011;2101;48.290;14.382;2024-02-21T11:57:50;44.40;;;2.57;;
4174;SDS011;2101;48.290;14.382;2024-02-21T12:00:17;47.60;;;2.80;;
4174;SDS011;2101;48.290;14.382;2024-02-21T12:02:47;50.47;;;3.60;;
4174;SDS011;2101;48.290;14.382;2024-02-21T12:05:13;45.97;;;2.73;;
4174;SDS011;2101;48.290;14.382;2024-02-21T12:07:39;48.40;;;2.47;;
4174;SDS011;2101;48.290;14.382;2024-02-21T12:10:09;47.40;;;2.33;;
4174;SDS011;2101;48.290;14.382;2024-02-21T12:12:36;48.50;;;2.67;;
4174;SDS011;2101;48.290;14.382;2024-02-21T12:15:06;46.20;;;2.20;;
4174;SDS011;2101;48.290;14.382;2024-02-21T12:17:36;44.07;;;2.30;;
4174;SDS011;2101;48.290;14.382;2024-02-21T12:20:03;49.83;;;2.40;;
4174;SDS011;2101;48.290;14.382;2024-02-21T12:22:31;47.43;;;2.63;;
4174;SDS011;2101;48.290;14.382;2024-02-21T12:24:59;52.80;;;2.13;;
4174;SDS011;2101;48.290;14.382;2024-02-21T12:27:27;50.37;;;2.70;;
4174;SDS011;2101;48.290;14.382;2024-02-21T12:29:54;44.33;;;2.20;;
4174;SDS011;2101;48.290;14.382;2024-02-21T12:32:19;42.10;;;1.60;;
4174;SDS011;2101;48.290;14.382;2024-02-21T12:34:45;44.87;;;1.90;;
4174;SDS011;2101;48.290;14.382;2024-02-21T12:37:11;43.27;;;1.97;;
4174;SDS011;2101;48.290;14.382;2024-02-21T12:39:38;46.20;;;1.70;;
4174;SDS011;2101;48.290;14.382;2024-02-21T12:42:04;41.60;;;1.40;;
4174;SDS011;2101;48.290;14.382;2024-02-21T12:44:30;50.43;;;1.67;;
4174;SDS011;2101;48.290;14.382;2024-02-21T12:46:56;45.47;;;1.50;;
4174;SDS011;2101;48.290;14.382;2024-02-21T12:49:22;49.77;;;2.10;;
4174;SDS011;2101;48.290;14.382;2024-02-21T12:51:49;46.23;;;2.00;;
4174;SDS011;2101;48.290;14.382;2024-02-21T12:54:15;56.10;;;2.40;;
4174;SDS011;2101;48.290;14.382;2024-02-21T12:56:41;45.57;;;1.80;;
4174;SDS011;2101;48.290;14.382;2024-02-21T12:59:07;55.40;;;3.00;;
4174;SDS011;2101;48.290;14.382;2024-02-21T13:01:36;44.27;;;1.80;;
4174;SDS011;2101;48.290;14.382;2024-02-21T13:04:02;47.80;;;2.63;;
4174;SDS011;2101;48.290;14.382;2024-02-21T13:06:28;47.23;;;1.77;;
4174;SDS011;2101;48.290;14.382;2024-02-21T13:08:54;48.47;;;2.50;;
4174;SDS011;2101;48.290;14.382;2024-02-21T13:11:20;48.23;;;2.30;;
4174;SDS011;2101;48.290;14.382;2024-02-21T13:13:46;46.80;;;2.30;;
4174;SDS011;2101;48.290;14.382;2024-02-21T13:16:12;45.00;;;2.30;;
4174;SDS011;2101;48.290;14.382;2024-02-21T13:18:37;60.20;;;2.17;;
4174;SDS011;2101;48.290;14.382;2024-02-21T13:21:04;47.80;;;2.40;;
4174;SDS011;2101;48.290;14.382;2024-02-21T13:23:31;52.13;;;2.10;;
4174;SDS011;2101;48.290;14.382;2024-02-21T13:25:57;41.17;;;1.20;;
4174;SDS011;2101;48.290;14.382;2024-02-21T13:28:22;44.27;;;1.53;;
4174;SDS011;2101;48.290;14.382;2024-02-21T13:30:48;43.70;;;1.27;;
4174;SDS011;2101;48.290;14.382;2024-02-21T13:33:14;43.53;;;1.30;;
4174;SDS011;2101;48.290;14.382;2024-02-21T13:35:41;53.00;;;2.10;;
4174;SDS011;2101;48.290;14.382;2024-02-21T13:38:07;42.30;;;1.73;;
4174;SDS011;2101;48.290;14.382;2024-02-21T13:40:35;43.30;;;1.50;;
4174;SDS011;2101;48.290;14.382;2024-02-21T13:43:01;43.17;;;1.40;;
4174;SDS011;2101;48.290;14.382;2024-02-21T13:45:27;42.77;;;1.20;;
4174;SDS011;2101;48.290;14.382;2024-02-21T13:47:53;46.30;;;1.57;;
4174;SDS011;2101;48.290;14.382;2024-02-21T13:50:19;48.03;;;1.87;;
4174;SDS011;2101;48.290;14.382;2024-02-21T13:52:47;50.23;;;1.27;;
4174;SDS011;2101;48.290;14.382;2024-02-21T13:55:13;40.10;;;1.20;;
4174;SDS011;2101;48.290;14.382;2024-02-21T13:57:38;44.40;;;1.80;;
4174;SDS011;2101;48.290;14.382;2024-02-21T14:00:05;43.70;;;1.37;;
4174;SDS011;2101;48.290;14.382;2024-02-21T14:02:35;50.37;;;1.80;;
4174;SDS011;2101;48.290;14.382;2024-02-21T14:05:00;44.90;;;1.70;;
4174;SDS011;2101;48.290;14.382;2024-02-21T14:07:30;43.17;;;1.83;;
4174;SDS011;2101;48.290;14.382;2024-02-21T14:09:55;41.63;;;1.53;;
4174;SDS011;2101;48.290;14.382;2024-02-21T14:12:21;42.77;;;1.67;;
4174;SDS011;2101;48.290;14.382;2024-02-21T14:14:48;44.63;;;1.93;;
4174;SDS011;2101;48.290;14.382;2024-02-21T14:17:15;43.80;;;2.00;;
4174;SDS011;2101;48.290;14.382;2024-02-21T14:19:41;45.60;;;2.57;;
4174;SDS011;2101;48.290;14.382;2024-02-21T14:22:10;41.97;;;1.70;;
4174;SDS011;2101;48.290;14.382;2024-02-21T14:24:36;43.50;;;1.67;;
4174;SDS011;2101;48.290;14.382;2024-02-21T14:27:02;42.50;;;1.83;;
4174;SDS011;2101;48.290;14.382;2024-02-21T14:29:29;45.27;;;1.50;;
4174;SDS011;2101;48.290;14.382;2024-02-21T14:31:55;42.10;;;1.40;;
4174;SDS011;2101;48.290;14.382;2024-02-21T14:34:21;48.47;;;1.70;;
4174;SDS011;2101;48.290;14.382;2024-02-21T14:36:46;42.97;;;1.47;;
4174;SDS011;2101;48.290;14.382;2024-02-21T14:39:13;42.40;;;1.50;;
4174;SDS011;2101;48.290;14.382;2024-02-21T14:41:38;46.73;;;1.90;;
4174;SDS011;2101;48.290;14.382;2024-02-21T14:44:04;42.73;;;1.40;;
4174;SDS011;2101;48.290;14.382;2024-02-21T14:46:31;43.03;;;1.50;;
4174;SDS011;2101;48.290;14.382;2024-02-21T14:48:57;43.40;;;1.67;;
4174;SDS011;2101;48.290;14.382;2024-02-21T14:51:23;49.23;;;2.30;;
4174;SDS011;2101;48.290;14.382;2024-02-21T14:53:48;47.80;;;2.53;;
4174;SDS011;2101;48.290;14.382;2024-02-21T14:56:15;44.50;;;1.47;;
4174;SDS011;2101;48.290;14.382;2024-02-21T14:58:42;40.40;;;1.17;;
4174;SDS011;2101;48.290;14.382;2024-02-21T15:01:08;40.50;;;1.17;;
4174;SDS011;2101;48.290;14.382;2024-02-21T15:03:34;43.67;;;1.60;;
4174;SDS011;2101;48.290;14.382;2024-02-21T15:06:00;52.73;;;3.13;;
4174;SDS011;2101;48.290;14.382;2024-02-21T15:08:27;47.83;;;2.10;;
4174;SDS011;2101;48.290;14.382;2024-02-21T15:10:53;48.83;;;1.60;;
4174;SDS011;2101;48.290;14.382;2024-02-21T15:13:19;51.43;;;2.30;;
4174;SDS011;2101;48.290;14.382;2024-02-21T15:15:47;51.40;;;2.63;;
4174;SDS011;2101;48.290;14.382;2024-02-21T15:18:14;41.03;;;1.47;;
4174;SDS011;2101;48.290;14.382;2024-02-21T15:20:43;46.30;;;1.70;;
4174;SDS011;2101;48.290;14.382;2024-02-21T15:23:10;41.40;;;1.23;;
4174;SDS011;2101;48.290;14.382;2024-02-21T15:25:36;45.40;;;1.63;;